createdAt,value
2019-01-17T00:00:07.933Z,97091.06
2019-01-17T00:02:55.512Z,97088.49
2019-01-17T00:08:19.174Z,97094.53
2019-01-17T00:11:06.915Z,97091.77
2019-01-17T00:16:34.022Z,97097.77
2019-01-17T00:19:21.524Z,97099.91
2019-01-17T00:27:23.923Z,97096.70
2019-01-17T00:33:00.516Z,97087.48
2019-01-17T00:35:48.255Z,97087.20
2019-01-17T00:38:35.763Z,97092.70
2019-01-17T00:44:12.440Z,97095.00
2019-01-17T00:46:59.947Z,97097.96
2019-01-17T00:49:47.461Z,97095.08
2019-01-17T00:55:45.093Z,97105.09
2019-01-17T00:58:32.687Z,97104.66
2019-01-17T01:01:20.199Z,97106.98
2019-01-17T01:04:27.056Z,97115.25
2019-01-17T01:07:14.572Z,97115.62
2019-01-17T01:10:02.329Z,97115.95
2019-01-17T01:12:49.848Z,97120.13
2019-01-17T01:15:58.140Z,97127.05
2019-01-17T01:18:45.658Z,97122.06
2019-01-17T01:21:33.163Z,97132.86
2019-01-17T01:24:20.681Z,97131.62
2019-01-17T01:27:08.186Z,97136.08
2019-01-17T01:29:55.941Z,97135.01
2019-01-17T01:35:32.553Z,97135.91
2019-01-17T01:38:20.058Z,97133.17
2019-01-17T01:41:07.578Z,97143.06
2019-01-17T01:43:55.324Z,97142.06
2019-01-17T01:49:18.172Z,97138.84
2019-01-17T01:54:22.319Z,97131.56
2019-01-17T01:56:50.643Z,97144.91
2019-01-17T01:59:19.045Z,97138.39
2019-01-17T02:01:47.499Z,97129.96
2019-01-17T02:04:15.901Z,97131.73
2019-01-17T02:06:44.306Z,97134.65
2019-01-17T02:09:12.715Z,97125.63
2019-01-17T02:11:41.116Z,97128.50
2019-01-17T02:14:49.425Z,97131.11
2019-01-17T02:20:46.905Z,97123.45
2019-01-17T02:23:15.296Z,97118.88
2019-01-17T02:25:43.704Z,97123.47
2019-01-17T02:28:12.105Z,97120.84
2019-01-17T02:30:40.807Z,97123.05
2019-01-17T02:33:09.224Z,97116.09
2019-01-17T02:35:37.603Z,97115.30
2019-01-17T02:38:06.080Z,97115.41
2019-01-17T02:40:34.473Z,97119.94
2019-01-17T02:43:03.208Z,97115.30
2019-01-17T02:45:31.673Z,97108.28
2019-01-17T02:48:00.077Z,97103.63
2019-01-17T02:50:28.775Z,97105.72
2019-01-17T02:52:57.185Z,97106.10
2019-01-17T02:55:25.574Z,97104.95
2019-01-17T02:57:53.981Z,97097.87
2019-01-17T03:00:22.392Z,97096.46
2019-01-17T03:02:50.791Z,97091.14
2019-01-17T03:05:19.195Z,97089.50
2019-01-17T03:07:47.592Z,97091.53
2019-01-17T03:10:55.920Z,97091.53
2019-01-17T03:13:24.308Z,97097.11
2019-01-17T03:15:52.706Z,97091.89
2019-01-17T03:18:21.104Z,97087.00
2019-01-17T03:20:49.594Z,97092.78
2019-01-17T03:23:17.983Z,97092.30
2019-01-17T03:25:46.707Z,97078.55
2019-01-17T03:28:15.411Z,97077.13
2019-01-17T03:30:44.090Z,97068.48
2019-01-17T03:33:12.769Z,97058.30
2019-01-17T03:35:41.454Z,97058.73
2019-01-17T03:38:10.148Z,97053.13
2019-01-17T03:43:32.903Z,97053.84
2019-01-17T03:46:01.296Z,97046.94
2019-01-17T03:48:29.971Z,97051.11
2019-01-17T03:50:58.660Z,97055.38
2019-01-17T03:53:27.287Z,97052.59
2019-01-17T03:58:35.476Z,97040.99
2019-01-17T04:01:03.932Z,97043.02
2019-01-17T04:03:32.325Z,97041.55
2019-01-17T04:06:01.019Z,97031.08
2019-01-17T04:08:29.412Z,97036.30
2019-01-17T04:10:57.809Z,97034.44
2019-01-17T04:13:26.220Z,97033.54
2019-01-17T04:15:54.620Z,97034.91
2019-01-17T04:18:23.017Z,97030.83
2019-01-17T04:21:10.769Z,97028.25
2019-01-17T04:23:39.161Z,97031.71
2019-01-17T04:26:07.552Z,97028.97
2019-01-17T04:28:35.961Z,97021.55
2019-01-17T04:31:04.488Z,97021.97
2019-01-17T04:33:32.886Z,97020.83
2019-01-17T04:36:01.297Z,97019.61
2019-01-17T04:38:29.690Z,97011.89
2019-01-17T04:41:17.739Z,97012.61
2019-01-17T04:43:46.131Z,97012.61
2019-01-17T04:46:14.535Z,97002.45
2019-01-17T04:48:42.932Z,97002.93
2019-01-17T04:51:11.663Z,96997.95
2019-01-17T04:53:40.055Z,96999.38
2019-01-17T04:56:08.463Z,96992.73
2019-01-17T04:58:37.107Z,96990.06
2019-01-17T05:01:05.579Z,96988.30
2019-01-17T05:03:33.985Z,96990.70
2019-01-17T05:06:02.665Z,96990.63
2019-01-17T05:08:31.062Z,96987.89
2019-01-17T05:10:59.468Z,96989.19
2019-01-17T05:13:27.878Z,96982.56
2019-01-17T05:15:56.587Z,96982.64
2019-01-17T05:18:24.981Z,96960.84
2019-01-17T05:20:53.421Z,96974.59
2019-01-17T05:23:21.814Z,96969.61
2019-01-17T05:25:50.206Z,96971.22
2019-01-17T05:28:18.897Z,96973.07
2019-01-17T05:30:47.301Z,96958.23
2019-01-17T05:33:15.961Z,96956.40
2019-01-17T05:35:44.371Z,96961.55
2019-01-17T05:38:12.756Z,96953.42
2019-01-17T05:40:41.396Z,96944.39
2019-01-17T05:43:09.802Z,96951.41
2019-01-17T05:45:38.204Z,96946.02
2019-01-17T05:48:06.598Z,96946.74
2019-01-17T05:50:34.999Z,96937.00
2019-01-17T05:53:03.460Z,96937.56
2019-01-17T05:55:32.095Z,96935.95
2019-01-17T05:58:00.772Z,96935.94
2019-01-17T06:00:29.556Z,96929.15
2019-01-17T06:02:57.944Z,96925.72
2019-01-17T06:05:26.721Z,96924.84
2019-01-17T06:07:55.118Z,96917.30
2019-01-17T06:10:23.506Z,96913.68
2019-01-17T06:12:52.984Z,96914.80
2019-01-17T06:15:23.209Z,96904.39
2019-01-17T06:17:51.599Z,96917.61
2019-01-17T06:20:20.148Z,96904.69
2019-01-17T06:22:48.538Z,96895.17
2019-01-17T06:25:16.931Z,96891.95
2019-01-17T06:27:45.329Z,96898.87
2019-01-17T06:30:15.267Z,96890.25
2019-01-17T06:32:43.733Z,96878.50
2019-01-17T06:35:12.874Z,96875.44
2019-01-17T06:37:41.597Z,96876.69
2019-01-17T06:40:13.049Z,96852.69
2019-01-17T06:42:41.464Z,96871.67
2019-01-17T06:45:09.862Z,96862.78
2019-01-17T06:47:38.253Z,96865.53
2019-01-17T06:50:09.572Z,96866.01
2019-01-17T06:52:38.027Z,96862.77
2019-01-17T06:55:08.529Z,96856.66
2019-01-17T06:57:37.043Z,96857.14
2019-01-17T07:00:11.221Z,96859.80
2019-01-17T07:02:39.683Z,96855.20
2019-01-17T07:05:08.909Z,96854.67
2019-01-17T07:07:37.364Z,96858.45
2019-01-17T07:10:11.950Z,96863.71
2019-01-17T07:12:40.354Z,96864.47
2019-01-17T07:15:09.997Z,96864.05
2019-01-17T07:17:38.421Z,96855.48
2019-01-17T07:20:09.838Z,96859.52
2019-01-17T07:22:38.234Z,96867.08
2019-01-17T07:25:08.663Z,96860.69
2019-01-17T07:27:37.064Z,96862.28
2019-01-17T07:30:17.323Z,96862.70
2019-01-17T07:32:45.748Z,96860.36
2019-01-17T07:35:14.203Z,96870.94
2019-01-17T07:37:42.596Z,96874.49
2019-01-17T07:40:12.747Z,96868.94
2019-01-17T07:42:41.130Z,96867.58
2019-01-17T07:45:18.223Z,96866.92
2019-01-17T07:47:46.878Z,96870.14
2019-01-17T07:50:15.397Z,96877.23
2019-01-17T07:52:43.868Z,96883.44
2019-01-17T07:55:12.507Z,96875.21
2019-01-17T07:57:40.951Z,96880.41
2019-01-17T08:00:18.123Z,96880.24
2019-01-17T08:02:46.522Z,96885.38
2019-01-17T08:05:15.258Z,96883.19
2019-01-17T08:07:43.980Z,96885.51
2019-01-17T08:10:15.182Z,96890.52
2019-01-17T08:12:43.949Z,96889.06
2019-01-17T08:15:13.891Z,96893.05
2019-01-17T08:17:42.359Z,96900.34
2019-01-17T08:20:19.122Z,96892.42
2019-01-17T08:22:47.656Z,96903.68
2019-01-17T08:25:16.219Z,96899.37
2019-01-17T08:27:44.753Z,96899.23
2019-01-17T08:30:22.281Z,96892.50
2019-01-17T08:32:50.698Z,96893.20
2019-01-17T08:35:19.456Z,96894.35
2019-01-17T08:37:47.851Z,96899.23
2019-01-17T08:40:22.231Z,96901.63
2019-01-17T08:42:50.944Z,96902.25
2019-01-17T08:45:19.395Z,96915.49
2019-01-17T08:47:48.108Z,96922.41
2019-01-17T08:50:17.610Z,96929.34
2019-01-17T08:52:46.404Z,96921.56
2019-01-17T08:55:14.877Z,96927.19
2019-01-17T08:57:43.339Z,96943.40
2019-01-17T09:00:25.757Z,96933.66
2019-01-17T09:02:54.212Z,96934.67
2019-01-17T09:05:22.602Z,96930.27
2019-01-17T09:07:51.010Z,96937.91
2019-01-17T09:10:22.434Z,96946.31
2019-01-17T09:12:51.262Z,96939.27
2019-01-17T09:15:22.513Z,96931.83
2019-01-17T09:17:50.987Z,96936.30
2019-01-17T09:20:19.389Z,96926.47
2019-01-17T09:22:47.770Z,96927.08
2019-01-17T09:25:17.423Z,96923.42
2019-01-17T09:27:46.134Z,96930.79
2019-01-17T09:30:22.169Z,96929.55
2019-01-17T09:32:50.977Z,96925.50
2019-01-17T09:35:20.073Z,96936.41
2019-01-17T09:37:48.942Z,96936.69
2019-01-17T09:40:22.350Z,96933.18
2019-01-17T09:42:50.901Z,96936.09
2019-01-17T09:45:19.435Z,96940.12
2019-01-17T09:47:47.971Z,96927.17
2019-01-17T09:50:18.309Z,96930.20
2019-01-17T09:52:47.226Z,96936.08
2019-01-17T09:55:16.018Z,96935.78
2019-01-17T09:57:44.400Z,96935.31
2019-01-17T10:00:16.262Z,96938.63
2019-01-17T10:02:44.647Z,96931.27
2019-01-17T10:05:13.097Z,96938.24
2019-01-17T10:07:41.562Z,96940.52
2019-01-17T10:10:16.012Z,96927.30
2019-01-17T10:12:44.460Z,96923.31
2019-01-17T10:15:16.027Z,96934.32
2019-01-17T10:17:53.435Z,96933.34
2019-01-17T10:20:27.748Z,96935.47
2019-01-17T10:23:05.074Z,96941.28
2019-01-17T10:25:44.041Z,96945.11
2019-01-17T10:28:33.736Z,96940.52
2019-01-17T10:31:24.579Z,96951.45
2019-01-17T10:33:56.029Z,96940.34
2019-01-17T10:36:48.436Z,96935.54
2019-01-17T10:39:34.717Z,96934.42
2019-01-17T10:42:27.341Z,96941.23
2019-01-17T10:45:01.366Z,96947.42
2019-01-17T10:47:50.643Z,96930.16
2019-01-17T10:50:31.205Z,96928.76
2019-01-17T10:53:23.985Z,96946.59
2019-01-17T10:56:10.731Z,96939.27
2019-01-17T10:58:48.453Z,96944.64
2019-01-17T11:01:41.088Z,96947.47
2019-01-17T11:04:49.439Z,96943.83
2019-01-17T11:07:56.655Z,96945.53
2019-01-17T11:11:04.939Z,96946.73
2019-01-17T11:14:11.918Z,96941.12
2019-01-17T11:17:20.262Z,96948.95
2019-01-17T11:20:27.239Z,96946.47
2019-01-17T11:23:35.602Z,96947.30
2019-01-17T11:26:43.883Z,96952.63
2019-01-17T11:29:50.857Z,96955.41
2019-01-17T11:32:58.063Z,96954.13
2019-01-17T11:36:06.362Z,96951.86
2019-01-17T11:39:14.721Z,96948.32
2019-01-17T11:42:21.700Z,96957.08
2019-01-17T11:45:30.052Z,96956.42
2019-01-17T11:48:37.014Z,96956.42
2019-01-17T11:51:43.991Z,96956.37
2019-01-17T11:54:52.279Z,96948.81
2019-01-17T11:57:59.256Z,96956.97
2019-01-17T12:01:07.838Z,96959.76
2019-01-17T12:04:14.828Z,96965.80
2019-01-17T12:06:43.482Z,96958.46
2019-01-17T12:09:11.865Z,96969.72
2019-01-17T12:11:40.271Z,96970.20
2019-01-17T12:14:08.928Z,96975.66
2019-01-17T12:16:37.314Z,96966.13
2019-01-17T12:19:06.095Z,96958.02
2019-01-17T12:22:14.390Z,96953.96
2019-01-17T12:24:42.792Z,96953.59
2019-01-17T12:27:11.172Z,96949.23
2019-01-17T12:29:39.555Z,96954.88
2019-01-17T12:32:27.290Z,96945.39
2019-01-17T12:34:55.963Z,96937.70
2019-01-17T12:37:24.358Z,96935.17
2019-01-17T12:39:52.752Z,96925.34
2019-01-17T12:42:21.126Z,96934.05
2019-01-17T12:44:49.763Z,96922.61
2019-01-17T12:47:18.137Z,96923.98
2019-01-17T12:49:46.531Z,96921.28
2019-01-17T12:52:14.914Z,96918.71
2019-01-17T12:54:43.290Z,96913.13
2019-01-17T12:57:11.689Z,96912.43
2019-01-17T12:59:40.374Z,96916.13
2019-01-17T13:02:08.822Z,96919.03
2019-01-17T13:04:37.213Z,96923.48
2019-01-17T13:07:05.910Z,96929.06
2019-01-17T13:09:34.309Z,96919.27
2019-01-17T13:12:03.077Z,96910.56
2019-01-17T13:14:31.765Z,96909.34
2019-01-17T13:17:00.158Z,96903.59
2019-01-17T13:19:28.614Z,96910.75
2019-01-17T13:21:57.006Z,96894.74
2019-01-17T13:24:25.457Z,96897.31
2019-01-17T13:26:53.826Z,96898.47
2019-01-17T13:29:22.228Z,96892.50
2019-01-17T13:31:50.607Z,96893.60
2019-01-17T13:34:18.982Z,96910.34
2019-01-17T13:36:47.682Z,96901.86
2019-01-17T13:39:16.123Z,96898.00
2019-01-17T13:41:44.509Z,96900.48
2019-01-17T13:44:12.905Z,96896.48
2019-01-17T13:47:00.621Z,96901.11
2019-01-17T13:49:29.014Z,96899.51
2019-01-17T13:51:57.723Z,96887.92
2019-01-17T13:54:26.114Z,96888.06
2019-01-17T13:56:54.581Z,96900.46
2019-01-17T13:59:22.959Z,96912.80
2019-01-17T14:01:51.350Z,96901.78
2019-01-17T14:04:19.781Z,96905.61
2019-01-17T14:06:48.407Z,96902.25
2019-01-17T14:09:16.805Z,96903.98
2019-01-17T14:11:45.185Z,96910.09
2019-01-17T14:14:13.600Z,96909.00
2019-01-17T14:16:42.221Z,96922.91
2019-01-17T14:19:10.603Z,96923.57
2019-01-17T14:21:38.977Z,96918.58
2019-01-17T14:24:07.386Z,96916.66
2019-01-17T14:26:36.052Z,96929.47
2019-01-17T14:29:04.609Z,96930.70
2019-01-17T14:31:33.317Z,96924.48
2019-01-17T14:34:01.697Z,96934.67
2019-01-17T14:36:30.078Z,96938.45
2019-01-17T14:38:58.471Z,96944.27
2019-01-17T14:41:46.488Z,96937.01
2019-01-17T14:44:15.191Z,96950.42
2019-01-17T14:46:43.574Z,96946.95
2019-01-17T14:49:12.240Z,96946.16
2019-01-17T14:51:40.632Z,96951.72
2019-01-17T14:54:09.078Z,96949.64
2019-01-17T14:56:37.465Z,96959.98
2019-01-17T14:59:05.863Z,96954.02
2019-01-17T15:01:34.247Z,96971.83
2019-01-17T15:04:02.694Z,96978.13
2019-01-17T15:06:31.405Z,96982.05
2019-01-17T15:08:59.803Z,96995.12
2019-01-17T15:11:28.186Z,96989.48
2019-01-17T15:13:56.844Z,97003.61
2019-01-17T15:16:25.236Z,97012.22
2019-01-17T15:18:53.853Z,96993.84
2019-01-17T15:21:22.254Z,96997.70
2019-01-17T15:23:50.643Z,96996.95
2019-01-17T15:26:19.026Z,96997.11
2019-01-17T15:28:47.522Z,96999.13
2019-01-17T15:31:15.912Z,97004.63
2019-01-17T15:33:44.298Z,97000.92
2019-01-17T15:36:12.692Z,96994.30
2019-01-17T15:38:41.349Z,96996.88
2019-01-17T15:41:09.734Z,97001.25
2019-01-17T15:43:38.142Z,97005.74
2019-01-17T15:46:06.900Z,97005.48
2019-01-17T15:48:35.583Z,97024.73
2019-01-17T15:51:04.118Z,97032.20
2019-01-17T15:53:45.127Z,97039.70
2019-01-17T15:56:13.827Z,97032.30
2019-01-17T15:58:42.216Z,97045.11
2019-01-17T16:01:10.612Z,97040.19
2019-01-17T16:03:39.012Z,97043.35
2019-01-17T16:06:07.393Z,97056.77
2019-01-17T16:08:35.798Z,97051.63
2019-01-17T16:11:04.178Z,97045.33
2019-01-17T16:13:32.585Z,97056.39
2019-01-17T16:16:00.984Z,97058.30
2019-01-17T16:18:29.645Z,97052.64
2019-01-17T16:20:58.331Z,97065.94
2019-01-17T16:23:26.735Z,97077.14
2019-01-17T16:25:55.120Z,97081.65
2019-01-17T16:28:23.788Z,97106.18
2019-01-17T16:30:52.463Z,97088.95
2019-01-17T16:33:20.867Z,97089.59
2019-01-17T16:35:49.538Z,97095.66
2019-01-17T16:38:18.015Z,97082.46
2019-01-17T16:40:46.690Z,97080.66
2019-01-17T16:43:15.076Z,97078.75
2019-01-17T16:45:43.766Z,97070.73
2019-01-17T16:48:12.162Z,97058.53
2019-01-17T16:50:40.558Z,97078.93
2019-01-17T16:53:09.184Z,97080.11
2019-01-17T16:55:37.853Z,97090.92
2019-01-17T16:58:06.482Z,97091.11
2019-01-17T17:01:14.828Z,97091.25
2019-01-17T17:03:43.205Z,97097.50
2019-01-17T17:06:31.192Z,97102.36
2019-01-17T17:08:59.576Z,97105.14
2019-01-17T17:11:28.373Z,97103.91
2019-01-17T17:13:57.053Z,97108.33
2019-01-17T17:16:25.439Z,97117.39
2019-01-17T17:18:53.823Z,97127.50
2019-01-17T17:21:22.221Z,97151.91
2019-01-17T17:23:50.605Z,97167.03
2019-01-17T17:26:18.989Z,97183.29
2019-01-17T17:28:47.509Z,97183.78
2019-01-17T17:31:15.938Z,97200.34
2019-01-17T17:33:44.326Z,97196.11
2019-01-17T17:36:12.743Z,97206.58
2019-01-17T17:38:41.133Z,97216.70
2019-01-17T17:41:09.531Z,97225.70
2019-01-17T17:43:37.914Z,97232.28
2019-01-17T17:46:06.367Z,97229.05
2019-01-17T17:48:34.778Z,97229.05
2019-01-17T17:51:10.186Z,97223.62
2019-01-17T17:53:38.579Z,97223.92
2019-01-17T17:56:07.380Z,97235.69
2019-01-17T17:58:35.852Z,97247.44
2019-01-17T18:03:53.394Z,97256.34
2019-01-17T18:06:22.045Z,97259.10
2019-01-17T18:08:50.431Z,97266.64
2019-01-17T18:11:18.824Z,97267.77
2019-01-17T18:13:47.220Z,97270.70
2019-01-17T18:16:15.611Z,97277.16
2019-01-17T18:18:44.035Z,97279.06
2019-01-17T18:21:12.497Z,97281.15
2019-01-17T18:23:41.198Z,97274.09
2019-01-17T18:26:09.882Z,97275.52
2019-01-17T18:28:38.271Z,97276.58
2019-01-17T18:31:06.669Z,97278.24
2019-01-17T18:33:35.069Z,97286.77
2019-01-17T18:36:03.706Z,97285.91
2019-01-17T18:38:32.115Z,97296.88
2019-01-17T18:41:00.499Z,97294.73
2019-01-17T18:43:28.880Z,97293.38
2019-01-17T18:45:57.698Z,97296.09
2019-01-17T18:48:26.184Z,97301.09
2019-01-17T18:50:54.673Z,97299.46
2019-01-17T18:53:23.077Z,97301.67
2019-01-17T18:55:51.531Z,97302.49
2019-01-17T18:58:19.921Z,97304.70
2019-01-17T19:00:48.388Z,97308.04
2019-01-17T19:03:16.848Z,97317.73
2019-01-17T19:05:45.580Z,97320.03
2019-01-17T19:08:13.982Z,97318.73
2019-01-17T19:10:42.510Z,97325.39
2019-01-17T19:13:10.894Z,97330.13
2019-01-17T19:15:39.303Z,97330.63
2019-01-17T19:18:07.691Z,97330.95
2019-01-17T19:20:37.647Z,97342.98
2019-01-17T19:23:05.952Z,97341.66
2019-01-17T19:25:34.338Z,97352.95
2019-01-17T19:28:03.037Z,97361.13
2019-01-17T19:30:31.580Z,97362.78
2019-01-17T19:33:00.044Z,97370.68
2019-01-17T19:35:28.890Z,97377.72
2019-01-17T19:37:57.577Z,97376.11
2019-01-17T19:40:28.502Z,97373.92
2019-01-17T19:42:56.960Z,97372.33
2019-01-17T19:45:25.679Z,97373.63
2019-01-17T19:47:54.472Z,97381.48
2019-01-17T19:50:28.231Z,97378.44
2019-01-17T19:52:56.778Z,97386.59
2019-01-17T19:55:26.298Z,97382.61
2019-01-17T19:57:54.951Z,97377.41
2019-01-17T20:00:23.424Z,97382.91
2019-01-17T20:02:52.222Z,97382.34
2019-01-17T20:05:26.532Z,97377.19
2019-01-17T20:07:55.231Z,97386.73
2019-01-17T20:10:28.964Z,97384.59
2019-01-17T20:12:57.511Z,97380.30
2019-01-17T20:15:26.304Z,97395.55
2019-01-17T20:17:54.829Z,97393.95
2019-01-17T20:20:23.313Z,97397.76
2019-01-17T20:22:51.703Z,97401.60
2019-01-17T20:25:20.427Z,97405.89
2019-01-17T20:27:48.831Z,97406.93
2019-01-17T20:30:19.930Z,97415.63
2019-01-17T20:32:48.655Z,97428.66
2019-01-17T20:35:17.422Z,97427.30
2019-01-17T20:37:46.212Z,97449.13
2019-01-17T20:40:17.340Z,97448.53
2019-01-17T20:42:45.737Z,97447.47
2019-01-17T20:45:14.150Z,97455.70
2019-01-17T20:47:42.671Z,97448.63
2019-01-17T20:50:14.410Z,97449.76
2019-01-17T20:52:42.894Z,97446.35
2019-01-17T20:55:12.325Z,97441.96
2019-01-17T20:57:41.390Z,97442.80
2019-01-17T21:00:20.077Z,97450.98
2019-01-17T21:02:48.540Z,97448.00
2019-01-17T21:05:17.327Z,97448.55
2019-01-17T21:07:45.724Z,97458.13
2019-01-17T21:10:16.155Z,97464.87
2019-01-17T21:12:44.536Z,97475.53
2019-01-17T21:15:14.577Z,97475.23
2019-01-17T21:17:43.030Z,97482.51
2019-01-17T21:20:14.882Z,97480.31
2019-01-17T21:22:43.281Z,97479.17
2019-01-17T21:25:14.672Z,97476.30
2019-01-17T21:27:43.379Z,97485.76
2019-01-17T21:30:20.621Z,97487.42
2019-01-17T21:32:49.022Z,97499.30
2019-01-17T21:35:17.412Z,97506.13
2019-01-17T21:37:45.797Z,97509.94
2019-01-17T21:40:19.510Z,97516.41
2019-01-17T21:42:47.958Z,97518.59
2019-01-17T21:45:17.986Z,97523.22
2019-01-17T21:47:46.385Z,97525.92
2019-01-17T21:50:17.839Z,97523.03
2019-01-17T21:52:46.243Z,97517.59
2019-01-17T21:55:14.630Z,97518.66
2019-01-17T21:57:43.017Z,97521.38
2019-01-17T22:00:17.155Z,97527.12
2019-01-17T22:02:45.544Z,97527.38
2019-01-17T22:05:13.996Z,97525.18
2019-01-17T22:07:42.454Z,97551.33
2019-01-17T22:10:13.874Z,97538.84
2019-01-17T22:12:42.264Z,97565.12
2019-01-17T22:15:14.106Z,97576.98
2019-01-17T22:17:42.493Z,97575.91
2019-01-17T22:20:12.523Z,97580.35
2019-01-17T22:22:41.195Z,97591.50
2019-01-17T22:25:12.421Z,97593.14
2019-01-17T22:27:40.879Z,97596.66
2019-01-17T22:30:15.231Z,97597.17
2019-01-17T22:32:43.616Z,97591.73
2019-01-17T22:35:12.075Z,97602.86
2019-01-17T22:37:40.479Z,97610.70
2019-01-17T22:40:12.245Z,97608.27
2019-01-17T22:42:40.633Z,97609.09
2019-01-17T22:45:15.245Z,97607.16
2019-01-17T22:47:43.930Z,97602.27
2019-01-17T22:50:19.295Z,97609.06
2019-01-17T22:52:48.819Z,97614.25
2019-01-17T22:55:17.459Z,97615.32
2019-01-17T22:57:45.866Z,97616.40
2019-01-17T23:00:30.761Z,97615.34
2019-01-17T23:02:59.155Z,97618.91
2019-01-17T23:05:27.541Z,97631.40
2019-01-17T23:07:55.951Z,97626.50
2019-01-17T23:10:24.332Z,97632.50
2019-01-17T23:12:52.715Z,97626.27
2019-01-17T23:15:21.116Z,97635.22
2019-01-17T23:17:49.764Z,97621.63
2019-01-17T23:20:18.456Z,97638.50
2019-01-17T23:22:46.846Z,97628.70
2019-01-17T23:25:15.518Z,97637.67
2019-01-17T23:27:43.920Z,97632.25
2019-01-17T23:30:15.660Z,97645.86
2019-01-17T23:32:44.020Z,97645.06
2019-01-17T23:35:12.417Z,97642.09
2019-01-17T23:37:40.804Z,97637.70
2019-01-17T23:40:10.854Z,97648.33
2019-01-17T23:42:39.234Z,97652.11
2019-01-17T23:45:08.768Z,97652.11
2019-01-17T23:47:37.159Z,97652.95
2019-01-17T23:50:08.309Z,97655.92
2019-01-17T23:52:36.692Z,97651.30
2019-01-17T23:55:06.427Z,97652.69
2019-01-17T23:57:34.883Z,97651.59
